Time;durP1;ratioP1;P1;durP2;ratioP2;P2;SDS_P1;SDS_P2;PMS_P1;PMS_P2;Temp;Humidity;BMP_temperature;BMP_pressure;BME280_temperature;BME280_humidity;BME280_pressure;Samples;Min_cycle;Max_cycle;Signal;HPM_P1;HPM_P2
2023/06/20 00:00:52;;;;;;;15.57;9.43;;;20.40;99.90;;;;;;5054241;28;20043;-84
2023/06/20 00:03:18;;;;;;;17.67;10.10;;;20.40;99.90;;;;;;5054279;28;20511;-83
2023/06/20 00:05:44;;;;;;;17.58;9.57;;;20.40;99.90;;;;;;5054978;28;20498;-83
2023/06/20 00:08:10;;;;;;;16.73;10.63;;;20.30;99.90;;;;;;5054293;28;20052;-81
2023/06/20 00:10:36;;;;;;;15.55;10.35;;;20.30;99.90;;;;;;5054460;28;20021;-82
2023/06/20 00:13:02;;;;;;;17.30;10.50;;;20.30;99.90;;;;;;5053569;28;20029;-84
2023/06/20 00:15:28;;;;;;;18.88;9.65;;;20.20;99.90;;;;;;5054924;28;20031;-82
2023/06/20 00:17:59;;;;;;;14.68;9.45;;;20.10;99.90;;;;;;5055181;28;20460;-85
2023/06/20 00:20:29;;;;;;;18.67;10.38;;;20.10;99.90;;;;;;5070717;28;20025;-83
2023/06/20 00:22:55;;;;;;;16.15;9.52;;;20.10;99.90;;;;;;5053767;28;20021;-82
2023/06/20 00:25:21;;;;;;;15.82;10.40;;;20.00;99.90;;;;;;5053545;28;20021;-83
2023/06/20 00:27:47;;;;;;;15.85;10.02;;;20.00;99.90;;;;;;5053841;28;20032;-84
2023/06/20 00:30:14;;;;;;;16.20;10.23;;;20.00;99.90;;;;;;5054794;28;20120;-83
2023/06/20 00:32:39;;;;;;;14.90;9.82;;;19.90;99.90;;;;;;5053328;28;20017;-83
2023/06/20 00:35:05;;;;;;;16.95;10.98;;;19.90;99.90;;;;;;5053671;28;20021;-85
2023/06/20 00:37:34;;;;;;;19.38;10.73;;;19.90;99.90;;;;;;5053390;28;20412;-82
2023/06/20 00:39:59;;;;;;;17.90;11.43;;;19.80;99.90;;;;;;5052491;28;20063;-82
2023/06/20 00:42:25;;;;;;;19.38;10.68;;;19.80;99.90;;;;;;5053803;28;20052;-84
2023/06/20 00:44:51;;;;;;;23.63;10.55;;;19.80;99.90;;;;;;5054256;28;20017;-82
2023/06/20 00:47:18;;;;;;;15.98;10.20;;;19.80;99.90;;;;;;5052352;28;20065;-82
2023/06/20 00:49:49;;;;;;;15.50;10.60;;;19.80;99.90;;;;;;5052959;28;20455;-84
2023/06/20 00:52:20;;;;;;;20.90;9.07;;;19.80;99.90;;;;;;5052720;28;20033;-82
2023/06/20 00:54:47;;;;;;;16.87;9.97;;;19.70;99.90;;;;;;5050328;28;20055;-84
2023/06/20 00:57:17;;;;;;;20.85;10.05;;;19.70;99.90;;;;;;5052472;28;20033;-83
2023/06/20 00:59:47;;;;;;;17.00;10.27;;;19.70;99.90;;;;;;5052707;28;20032;-85
2023/06/20 01:02:15;;;;;;;18.08;9.85;;;19.60;99.90;;;;;;5052408;28;20033;-82
2023/06/20 01:04:50;;;;;;;21.13;10.38;;;19.60;99.90;;;;;;5052633;28;20021;-84
2023/06/20 01:07:36;;;;;;;17.27;10.50;;;19.50;99.90;;;;;;5052138;28;20017;-83
2023/06/20 01:10:14;;;;;;;17.00;11.15;;;19.50;99.90;;;;;;5052213;28;20021;-82
2023/06/20 01:12:50;;;;;;;20.40;11.63;;;19.50;99.90;;;;;;5050911;28;20028;-87
2023/06/20 01:15:27;;;;;;;15.63;10.70;;;19.50;99.90;;;;;;5053774;28;20071;-85
2023/06/20 01:18:04;;;;;;;16.33;11.30;;;19.40;99.90;;;;;;5053803;28;20036;-84
2023/06/20 01:20:44;;;;;;;19.00;11.65;;;19.40;99.90;;;;;;5052449;28;20459;-82
2023/06/20 01:23:20;;;;;;;18.77;11.73;;;19.30;99.90;;;;;;5051796;28;20086;-82
2023/06/20 01:26:17;;;;;;;17.60;11.70;;;19.20;99.90;;;;;;5066107;28;20119;-82
2023/06/20 01:29:02;;;;;;;15.90;11.05;;;19.20;99.90;;;;;;5049196;28;20441;-85
2023/06/20 01:31:36;;;;;;;24.55;11.23;;;19.20;99.90;;;;;;5052507;28;20029;-84
2023/06/20 01:34:28;;;;;;;18.48;12.07;;;19.20;99.90;;;;;;5046535;28;20021;-83
2023/06/20 01:36:57;;;;;;;21.48;11.30;;;19.20;99.90;;;;;;5029997;28;20041;-82
2023/06/20 01:39:30;;;;;;;17.65;11.10;;;19.20;99.90;;;;;;5052582;28;20032;-85
2023/06/20 01:42:01;;;;;;;21.77;11.82;;;19.20;99.90;;;;;;5052853;28;20029;-82
2023/06/20 01:44:28;;;;;;;18.42;11.45;;;19.10;99.90;;;;;;5052630;28;20025;-82
2023/06/20 01:46:57;;;;;;;16.48;11.65;;;19.20;99.90;;;;;;5052576;28;20027;-83
2023/06/20 01:49:25;;;;;;;21.27;12.27;;;19.10;99.90;;;;;;5052125;28;20037;-83
2023/06/20 01:51:56;;;;;;;17.50;11.70;;;19.10;99.90;;;;;;5052411;28;20079;-84
2023/06/20 01:54:24;;;;;;;19.92;11.75;;;19.10;99.90;;;;;;5053898;28;20017;-81
2023/06/20 01:56:51;;;;;;;20.02;12.15;;;19.10;99.90;;;;;;5052272;28;20475;-80
2023/06/20 01:59:18;;;;;;;20.05;11.63;;;19.10;99.90;;;;;;5052797;28;20115;-85
2023/06/20 02:01:47;;;;;;;17.17;11.02;;;19.10;99.90;;;;;;5051693;28;20108;-82
2023/06/20 02:04:15;;;;;;;21.20;11.23;;;19.10;99.90;;;;;;5052182;28;20052;-82
2023/06/20 02:06:42;;;;;;;19.08;11.75;;;19.10;99.90;;;;;;5052448;28;20367;-84
2023/06/20 02:09:08;;;;;;;16.75;10.85;;;19.10;99.90;;;;;;5052299;28;20131;-82
2023/06/20 02:11:35;;;;;;;20.45;11.90;;;19.10;99.90;;;;;;5053073;28;20025;-83
2023/06/20 02:14:02;;;;;;;16.73;11.32;;;19.10;99.90;;;;;;5052278;28;20028;-82
2023/06/20 02:16:28;;;;;;;16.48;10.63;;;19.10;99.90;;;;;;5052250;28;20107;-84
2023/06/20 02:18:54;;;;;;;18.63;10.85;;;19.10;99.90;;;;;;5053352;28;20021;-82
2023/06/20 02:21:24;;;;;;;19.98;12.30;;;19.10;99.90;;;;;;5053499;28;20025;-82
2023/06/20 02:23:52;;;;;;;17.83;12.25;;;19.00;99.90;;;;;;5052430;28;20368;-82
2023/06/20 02:26:21;;;;;;;23.30;12.40;;;19.10;99.90;;;;;;5051532;28;20032;-83
2023/06/20 02:28:49;;;;;;;19.15;11.55;;;19.00;99.90;;;;;;5053250;28;20033;-82
2023/06/20 02:31:19;;;;;;;17.98;11.43;;;19.00;99.90;;;;;;5051867;28;20437;-80
2023/06/20 02:33:48;;;;;;;17.95;11.18;;;19.00;99.90;;;;;;5053225;28;20137;-83
2023/06/20 02:36:15;;;;;;;20.10;11.88;;;18.90;99.90;;;;;;5056881;28;20075;-82
2023/06/20 02:38:41;;;;;;;21.02;11.85;;;18.80;99.90;;;;;;5055100;28;20032;-81
2023/06/20 02:41:06;;;;;;;19.90;12.02;;;18.80;99.90;;;;;;5055251;28;20047;-84
2023/06/20 02:43:32;;;;;;;22.58;11.88;;;18.80;99.90;;;;;;5055453;28;20474;-83
2023/06/20 02:46:31;;;;;;;17.88;11.88;;;18.80;99.90;;;;;;5054764;28;20025;-81
2023/06/20 02:49:09;;;;;;;19.45;11.18;;;18.80;99.90;;;;;;5054773;28;20041;-82
2023/06/20 02:51:42;;;;;;;21.40;13.23;;;18.70;99.90;;;;;;5051320;28;20119;-81
2023/06/20 02:54:23;;;;;;;21.85;12.75;;;18.70;99.90;;;;;;5055875;28;20021;-82
2023/06/20 02:56:55;;;;;;;22.73;12.97;;;18.70;99.90;;;;;;5055022;28;20032;-82
2023/06/20 02:59:27;;;;;;;25.65;12.45;;;18.70;99.90;;;;;;5054964;28;20379;-82
2023/06/20 03:01:57;;;;;;;20.42;13.23;;;18.70;99.90;;;;;;5054601;28;20506;-83
2023/06/20 03:04:25;;;;;;;24.63;13.05;;;18.70;99.90;;;;;;5054691;28;20116;-83
2023/06/20 03:06:52;;;;;;;28.08;12.15;;;18.60;99.90;;;;;;5054062;28;20071;-82
2023/06/20 03:09:19;;;;;;;20.00;12.07;;;18.70;99.90;;;;;;5054534;28;20033;-83
2023/06/20 03:11:46;;;;;;;25.65;13.30;;;18.70;99.90;;;;;;5069035;28;20033;-83
2023/06/20 03:14:13;;;;;;;22.05;11.73;;;18.70;99.90;;;;;;5054363;28;20471;-83
2023/06/20 03:16:41;;;;;;;26.00;12.65;;;18.70;99.90;;;;;;5054350;28;20040;-81
2023/06/20 03:19:11;;;;;;;24.88;12.55;;;18.70;99.90;;;;;;5054977;28;20044;-82
2023/06/20 03:21:40;;;;;;;20.83;11.85;;;18.70;99.90;;;;;;5055431;28;20033;-81
2023/06/20 03:24:06;;;;;;;23.02;12.25;;;18.70;99.90;;;;;;5056154;28;20344;-81
2023/06/20 03:26:33;;;;;;;24.48;11.95;;;18.70;99.90;;;;;;5054997;28;20024;-81
2023/06/20 03:28:59;;;;;;;18.88;12.32;;;18.70;99.90;;;;;;5055890;28;20029;-82
2023/06/20 03:31:26;;;;;;;30.70;12.82;;;18.70;99.90;;;;;;5055187;28;20025;-82
2023/06/20 03:33:52;;;;;;;26.73;11.55;;;18.70;99.90;;;;;;5056194;28;20067;-81
2023/06/20 03:36:17;;;;;;;18.90;12.13;;;18.70;99.90;;;;;;5054449;28;20119;-82
2023/06/20 03:38:43;;;;;;;23.40;11.90;;;18.70;99.90;;;;;;5056242;28;20459;-82
2023/06/20 03:41:09;;;;;;;28.65;12.05;;;18.70;99.90;;;;;;5054440;28;20032;-82
2023/06/20 03:43:35;;;;;;;21.80;11.98;;;18.70;99.90;;;;;;5054617;28;20025;-81
2023/06/20 03:46:00;;;;;;;20.85;12.10;;;18.80;99.90;;;;;;5054678;28;20021;-83
2023/06/20 03:48:26;;;;;;;20.20;11.88;;;18.80;99.90;;;;;;5053904;28;20051;-80
2023/06/20 03:50:52;;;;;;;24.73;12.18;;;18.80;99.90;;;;;;5054493;28;20032;-82
2023/06/20 03:53:18;;;;;;;20.35;12.18;;;18.90;99.90;;;;;;5055459;28;20029;-83
2023/06/20 03:55:43;;;;;;;24.10;12.27;;;18.90;99.90;;;;;;5054168;28;20032;-83
2023/06/20 03:58:09;;;;;;;23.35;12.20;;;18.90;99.90;;;;;;5054706;28;20056;-81
2023/06/20 04:00:35;;;;;;;21.20;12.38;;;18.90;99.90;;;;;;5053788;28;20017;-84
2023/06/20 04:03:01;;;;;;;16.50;11.43;;;18.90;99.90;;;;;;5054793;28;20029;-81
2023/06/20 04:05:27;;;;;;;21.80;11.70;;;19.00;99.90;;;;;;5053838;28;20371;-82
2023/06/20 04:07:53;;;;;;;26.23;13.00;;;19.10;99.90;;;;;;5068856;28;20118;-83
2023/06/20 04:10:19;;;;;;;22.60;11.95;;;19.20;99.90;;;;;;5052601;28;20409;-83
2023/06/20 04:12:45;;;;;;;22.17;12.15;;;19.20;99.90;;;;;;5053162;28;20017;-82
2023/06/20 04:15:11;;;;;;;23.85;12.43;;;19.30;99.90;;;;;;5053315;28;20048;-81
2023/06/20 04:17:39;;;;;;;25.15;12.73;;;19.40;99.90;;;;;;5054028;28;20029;-83
2023/06/20 04:20:11;;;;;;;19.73;12.50;;;19.50;99.90;;;;;;5052997;28;20017;-80
2023/06/20 04:22:40;;;;;;;22.55;12.10;;;19.50;99.90;;;;;;5054907;28;20031;-82
2023/06/20 04:25:07;;;;;;;21.85;13.18;;;19.50;99.90;;;;;;5052393;28;20082;-81
2023/06/20 04:27:32;;;;;;;22.80;12.57;;;19.50;99.90;;;;;;5052634;28;20106;-83
2023/06/20 04:29:58;;;;;;;22.55;13.52;;;19.60;99.90;;;;;;5052781;28;20455;-81
2023/06/20 04:32:24;;;;;;;25.45;14.02;;;19.70;99.90;;;;;;5054349;28;20085;-81
2023/06/20 04:34:52;;;;;;;24.88;13.07;;;19.70;99.90;;;;;;5053339;28;20113;-81
2023/06/20 04:37:19;;;;;;;25.67;13.07;;;19.80;99.90;;;;;;5053953;28;20033;-82
2023/06/20 04:39:44;;;;;;;23.55;14.05;;;19.80;99.90;;;;;;5052920;28;20471;-80
2023/06/20 04:42:10;;;;;;;25.83;13.70;;;19.80;99.90;;;;;;5052594;28;20060;-81
2023/06/20 04:44:36;;;;;;;26.90;15.75;;;19.90;99.90;;;;;;5052798;28;20048;-83
2023/06/20 04:47:02;;;;;;;22.88;14.13;;;19.90;99.90;;;;;;5052574;28;20044;-81
2023/06/20 04:49:28;;;;;;;34.00;15.85;;;20.00;99.90;;;;;;5052622;28;20459;-82
2023/06/20 04:51:57;;;;;;;32.15;14.73;;;20.10;99.90;;;;;;5051890;28;20039;-81
2023/06/20 04:54:24;;;;;;;25.58;14.63;;;20.20;99.90;;;;;;5052258;28;20195;-80
2023/06/20 04:56:50;;;;;;;22.35;14.15;;;20.30;99.90;;;;;;5052366;28;20379;-80
2023/06/20 04:59:15;;;;;;;25.67;13.77;;;20.30;99.90;;;;;;5052209;28;20029;-82
2023/06/20 05:01:41;;;;;;;20.30;12.65;;;20.30;99.90;;;;;;5051320;28;20029;-80
2023/06/20 05:04:07;;;;;;;21.38;13.18;;;20.50;99.90;;;;;;5052829;28;20032;-81
2023/06/20 05:06:33;;;;;;;24.38;13.23;;;20.60;99.90;;;;;;5052755;28;20021;-82
2023/06/20 05:08:59;;;;;;;25.58;12.75;;;20.60;99.90;;;;;;5052895;28;20037;-82
2023/06/20 05:11:26;;;;;;;24.33;13.38;;;20.60;99.90;;;;;;5053838;28;20124;-80
2023/06/20 05:13:52;;;;;;;22.00;13.20;;;;;;;;;;5052671;28;20029;-81
2023/06/20 05:16:18;;;;;;;20.05;11.43;;;20.90;99.90;;;;;;5054186;28;20096;-81
2023/06/20 05:18:46;;;;;;;20.50;11.95;;;20.90;99.90;;;;;;5052725;28;20048;-79
2023/06/20 05:21:12;;;;;;;17.88;11.65;;;21.00;99.90;;;;;;5052486;28;20025;-81
2023/06/20 05:23:38;;;;;;;21.80;11.68;;;21.10;99.90;;;;;;5054094;28;20455;-82
2023/06/20 05:26:04;;;;;;;18.63;10.80;;;;;;;;;;5053755;28;20039;-81
2023/06/20 05:28:29;;;;;;;17.85;10.48;;;21.40;99.90;;;;;;5052580;28;20475;-79
2023/06/20 05:30:55;;;;;;;17.77;10.55;;;21.40;99.90;;;;;;5052333;28;20040;-81
2023/06/20 05:33:21;;;;;;;21.58;10.90;;;;;;;;;;5053249;28;20028;-82
2023/06/20 05:35:47;;;;;;;27.02;11.40;;;;;;;;;;5052629;28;20021;-81
2023/06/20 05:38:15;;;;;;;17.58;10.88;;;;;;;;;;5053015;28;20024;-80
2023/06/20 05:40:42;;;;;;;15.73;9.80;;;;;;;;;;5052418;28;20025;-81
2023/06/20 05:43:08;;;;;;;17.30;10.65;;;;;;;;;;5052534;28;20078;-82
2023/06/20 05:45:34;;;;;;;24.75;10.45;;;;;;;;;;5052585;28;20064;-81
2023/06/20 05:48:00;;;;;;;18.95;11.57;;;;;;;;;;5053201;28;20357;-82
2023/06/20 05:50:27;;;;;;;17.05;10.25;;;;;;;;;;5052702;28;20021;-82
2023/06/20 05:52:53;;;;;;;20.85;10.25;;;;;;;;;;5053816;28;20486;-80
2023/06/20 05:55:19;;;;;;;16.83;9.75;;;;;;;;;;5052362;28;20040;-80
2023/06/20 05:57:46;;;;;;;17.38;10.00;;;;;;;;;;5069196;28;20112;-81
2023/06/20 06:00:12;;;;;;;15.73;8.73;;;;;;;;;;5052497;28;20021;-81
2023/06/20 06:02:45;;;;;;;16.25;8.93;;;;;;;;;;5052029;28;20025;-84
2023/06/20 06:05:11;;;;;;;18.15;9.02;;;;;;;;;;5051927;28;20115;-82
2023/06/20 06:07:38;;;;;;;13.32;8.80;;;;;;;;;;5053368;28;20117;-81
2023/06/20 06:10:05;;;;;;;15.25;9.45;;;;;;;;;;5054094;28;20021;-82
2023/06/20 06:12:31;;;;;;;18.20;8.25;;;;;;;;;;5056475;28;20048;-80
2023/06/20 06:14:57;;;;;;;16.75;7.93;;;;;;;;;;5072737;28;20021;-82
2023/06/20 06:17:23;;;;;;;16.08;8.82;;;;;;;;;;5073067;28;20104;-80
2023/06/20 06:19:49;;;;;;;12.90;8.40;;;;;;;;;;5056469;28;20063;-81
2023/06/20 06:22:20;;;;;;;12.57;8.27;;;;;;;;;;5056599;28;20081;-82
2023/06/20 06:24:46;;;;;;;14.27;8.32;;;;;;;;;;5057206;28;20529;-81
2023/06/20 06:27:12;;;;;;;13.35;8.25;;;;;;;;;;5056246;28;20029;-83
2023/06/20 06:29:39;;;;;;;14.32;8.43;;;;;;;;;;5055784;28;20028;-81
2023/06/20 06:32:05;;;;;;;18.10;8.40;;;;;;;;;;5057085;28;20079;-85
2023/06/20 06:34:32;;;;;;;14.23;8.88;;;;;;;;;;5057525;28;20013;-80
2023/06/20 06:36:58;;;;;;;12.00;8.15;;;;;;;;;;5055592;28;20112;-83
2023/06/20 06:39:25;;;;;;;16.98;7.85;;;;;;;;;;5056124;28;20051;-83
2023/06/20 06:41:51;;;;;;;15.30;9.05;;;;;;;;;;5055855;28;20092;-82
2023/06/20 06:44:17;;;;;;;14.23;8.73;;;;;;;;;;5056758;28;20363;-81
2023/06/20 06:46:44;;;;;;;14.85;8.20;;;;;;;;;;5055916;28;20033;-82
2023/06/20 06:49:10;;;;;;;13.82;8.52;;;;;;;;;;5055421;28;20041;-81
2023/06/20 06:51:39;;;;;;;15.45;8.18;;;;;;;;;;5055254;28;20425;-81
2023/06/20 06:54:05;;;;;;;16.88;8.50;;;;;;;;;;5057159;28;20409;-85
2023/06/20 06:56:36;;;;;;;14.77;7.70;;;;;;;;;;5056509;28;20394;-81
2023/06/20 06:59:02;;;;;;;15.82;8.85;;;;;;;;;;5071969;28;20017;-80
2023/06/20 07:01:28;;;;;;;21.02;7.72;;;;;;;;;;5072285;28;20032;-82
2023/06/20 07:03:55;;;;;;;12.50;7.90;;;;;;;;;;5071991;28;20382;-82
2023/06/20 07:06:21;;;;;;;11.75;8.02;;;;;;;;;;5071903;28;20024;-82
2023/06/20 07:08:47;;;;;;;12.15;8.13;;;;;;;;;;5071914;28;20107;-79
2023/06/20 07:11:13;;;;;;;13.02;7.88;;;;;;;;;;5071576;28;20100;-80
2023/06/20 07:13:40;;;;;;;16.95;8.15;;;;;;;;;;5071765;28;20578;-83
2023/06/20 07:16:06;;;;;;;18.15;8.05;;;;;;;;;;5055182;28;20025;-83
2023/06/20 07:18:32;;;;;;;13.35;8.32;;;;;;;;;;5054824;28;20037;-80
2023/06/20 07:20:59;;;;;;;13.35;7.97;;;;;;;;;;5054643;28;20017;-81
2023/06/20 07:23:25;;;;;;;15.48;8.85;;;;;;;;;;5056539;28;20013;-81
2023/06/20 07:25:52;;;;;;;12.23;7.93;;;;;;;;;;5054513;28;20028;-83
2023/06/20 07:28:18;;;;;;;11.02;7.18;;;;;;;;;;5054829;28;20029;-83
2023/06/20 07:30:44;;;;;;;10.85;7.70;;;;;;;;;;5056168;28;20021;-82
2023/06/20 07:33:10;;;;;;;10.63;7.82;;;;;;;;;;5054330;28;20024;-81
2023/06/20 07:35:36;;;;;;;14.48;7.90;;;;;;;;;;5054869;28;20454;-80
2023/06/20 07:38:02;;;;;;;14.02;6.75;;;;;;;;;;5054753;28;20021;-80
2023/06/20 07:40:28;;;;;;;16.05;8.00;;;;;;;;;;5055426;28;20029;-82
2023/06/20 07:42:55;;;;;;;10.05;7.00;;;;;;;;;;5055830;28;20028;-81
2023/06/20 07:45:21;;;;;;;13.43;7.50;;;;;;;;;;5054650;28;20024;-83
2023/06/20 07:47:47;;;;;;;11.23;7.65;;;;;;;;;;5053780;28;20139;-80
2023/06/20 07:50:13;;;;;;;11.73;7.00;;;;;;;;;;5054452;28;20033;-84
2023/06/20 07:52:40;;;;;;;12.82;8.07;;;;;;;;;;5054273;28;20091;-80
2023/06/20 07:55:06;;;;;;;13.00;7.22;;;;;;;;;;5055351;28;20044;-82
2023/06/20 07:57:32;;;;;;;12.27;7.45;;;;;;;;;;5054390;28;20027;-83
2023/06/20 07:59:59;;;;;;;10.90;7.55;;;;;;;;;;5054161;28;20078;-81
2023/06/20 08:02:28;;;;;;;12.98;7.70;;;;;;;;;;5054508;28;20397;-80
2023/06/20 08:04:54;;;;;;;14.75;8.65;;;;;;;;;;5055509;28;20025;-85
2023/06/20 08:07:20;;;;;;;15.65;8.32;;;;;;;;;;5055162;28;20023;-81
2023/06/20 08:09:46;;;;;;;17.88;7.18;;;;;;;;;;5070811;28;20035;-80
2023/06/20 08:12:12;;;;;;;11.40;6.75;;;;;;;;;;5055043;28;20045;-82
2023/06/20 08:14:38;;;;;;;11.10;6.97;;;;;;;;;;5053414;28;20070;-83
2023/06/20 08:17:05;;;;;;;10.77;7.10;;;;;;;;;;5053931;28;20111;-81
2023/06/20 08:19:31;;;;;;;16.60;8.00;;;;;;;;;;5053798;28;20029;-81
2023/06/20 08:21:57;;;;;;;11.40;7.28;;;;;;;;;;5053524;28;20021;-82
2023/06/20 08:24:23;;;;;;;15.20;7.50;;;;;;;;;;5070728;28;20506;-80
2023/06/20 08:26:49;;;;;;;12.90;7.07;;;;;;;;;;5054695;28;20099;-80
2023/06/20 08:29:15;;;;;;;14.15;7.53;;;;;;;;;;5054667;28;20025;-81
2023/06/20 08:31:42;;;;;;;16.75;7.82;;;;;;;;;;5054258;28;20024;-81
2023/06/20 08:34:08;;;;;;;14.27;7.28;;;;;;;;;;5054685;28;20024;-81
2023/06/20 08:36:34;;;;;;;12.05;7.10;;;;;;;;;;5054218;28;20017;-81
2023/06/20 08:39:01;;;;;;;10.30;6.10;;;;;;;;;;5054782;28;20017;-82
2023/06/20 08:41:27;;;;;;;12.88;6.78;;;;;;;;;;5054761;28;20021;-82
2023/06/20 08:43:53;;;;;;;12.73;6.07;;;;;;;;;;5053085;28;20082;-80
2023/06/20 08:46:20;;;;;;;11.70;6.40;;;;;;;;;;5054674;28;20028;-80
2023/06/20 08:48:47;;;;;;;9.40;6.35;;;;;;;;;;5053010;28;20124;-81
2023/06/20 08:51:16;;;;;;;10.45;6.10;;;;;;;;;;5052915;28;20024;-82
2023/06/20 08:53:46;;;;;;;13.27;7.43;;;;;;;;;;5053237;28;20108;-80
2023/06/20 08:56:13;;;;;;;13.88;6.88;;;;;;;;;;5054259;28;20021;-82
2023/06/20 08:58:39;;;;;;;12.45;6.97;;;;;;;;;;5054184;28;20021;-80
2023/06/20 09:01:07;;;;;;;18.42;6.30;;;;;;;;;;5054041;28;20367;-80
2023/06/20 09:03:33;;;;;;;13.98;6.20;;;;;;;;;;5052721;28;20467;-80
2023/06/20 09:06:00;;;;;;;11.60;6.57;;;;;;;;;;5031992;28;20083;-81
2023/06/20 09:08:33;;;;;;;19.13;7.00;;;;;;;;;;5032024;28;20065;-80
2023/06/20 09:11:09;;;;;;;9.38;6.43;;;;;;;;;;5031600;28;20111;-80
2023/06/20 09:13:35;;;;;;;19.38;6.22;;;;;;;;;;5031970;28;20036;-81
2023/06/20 09:16:05;;;;;;;10.18;6.07;;;;;;;;;;5015324;28;20029;-83
2023/06/20 09:18:33;;;;;;;9.88;6.20;;;;;;;;;;5031458;28;20095;-80
2023/06/20 23:27:26;;;;;;;42.65;26.83;;;22.50;99.90;;;;;;5091006;27;20390;-80
2023/06/20 23:29:52;;;;;;;44.65;28.05;;;22.10;99.90;;;;;;5090752;28;20062;-82
2023/06/20 23:32:18;;;;;;;40.05;27.27;;;22.10;99.90;;;;;;5089827;28;20034;-81
2023/06/20 23:34:44;;;;;;;44.80;27.50;;;22.10;99.90;;;;;;5088982;28;20039;-78
2023/06/20 23:37:10;;;;;;;39.55;25.50;;;22.10;99.90;;;;;;5086072;28;20119;-79
2023/06/20 23:39:36;;;;;;;36.55;23.00;;;22.10;99.90;;;;;;5071369;28;20119;-79
2023/06/20 23:42:02;;;;;;;36.97;23.80;;;22.10;99.90;;;;;;5072265;28;20510;-79
2023/06/20 23:44:28;;;;;;;37.58;22.75;;;22.10;99.90;;;;;;5072974;28;20111;-78
2023/06/20 23:46:54;;;;;;;31.52;22.13;;;22.20;99.90;;;;;;5068524;28;20120;-79
2023/06/20 23:49:20;;;;;;;33.20;22.23;;;22.20;99.90;;;;;;5073097;28;20028;-81
2023/06/20 23:51:46;;;;;;;40.75;23.63;;;22.20;99.90;;;;;;5072699;28;20064;-79
2023/06/20 23:54:12;;;;;;;36.50;25.42;;;22.20;99.90;;;;;;5070642;28;20021;-80
2023/06/20 23:56:38;;;;;;;31.58;23.20;;;22.20;99.90;;;;;;5072753;28;20111;-79
2023/06/20 23:59:05;;;;;;;33.58;22.45;;;22.30;99.90;;;;;;5070424;28;20463;-80
